Norwegian Gem — C6VG8 — position and weather

sailwx.info

Track history (hours):
 
Tides and Currents Weather Stations Pressure Air Temp Water Temp Dewpoint Dewpoint Depression Visibility Wind Speed Wind Dir Waves Ship Positions

Norwegian Gem (Bahamas)

Last reported at 2019-Sep-21 00:37 UTC. Time now 2019-Sep-22 00:40 UTC.
Position N 42°32' W 070°33'.

Length 294 m; draft 8.6 m.

Type: Ship. MMSI: 309951000.

Date/timePositionNaut miles runAvg speedWind from/ knotsBaromVisibWave heightAir tempDewpointWater temp
2019-Sep-21 00:37N 42°32' W 070°33'315.7
2019-Sep-21 00:24N 42°31' W 070°37'615.8
2019-Sep-21 00:00N 42°27' W 070°44'714.4
2019-Sep-20 23:31N 42°23' W 070°52'710.6
2019-Sep-20 22:52N 42°21' W 071°01'1 0.1
2019-Sep-20 10:48N 42°21' W 071°02'1 2.8
2019-Sep-20 10:30N 42°21' W 071°01'510.2
2019-Sep-20 10:00N 42°22' W 070°55'612.1
2019-Sep-20 09:30N 42°25' W 070°47'612.5
2019-Sep-20 09:00N 42°29' W 070°40'612.7
2019-Sep-20 08:31N 42°32' W 070°33'7215.0
2019-Sep-20 03:40N 43°13' W 069°12'915.9
2019-Sep-20 03:07N 43°18' W 069°02'516.3
2019-Sep-20 02:50N 43°21' W 068°57'515.5
2019-Sep-20 02:30N 43°24' W 068°51'815.9
2019-Sep-20 01:59N 43°29' W 068°42'816.0
2019-Sep-20 01:29N 43°34' W 068°33'815.8
2019-Sep-20 01:00N 43°40' W 068°28'916.6
2019-Sep-20 00:29N 43°48' W 068°22'1216.2
2019-Sep-19 23:45N 43°58' W 068°14'516.7
2019-Sep-19 23:29N 44°02' W 068°10'204 4.2
2019-Sep-17 22:30N 44°22' W 063°27'919.1
2019-Sep-17 22:00N 44°31' W 063°31'714.1
2019-Sep-17 21:31N 44°38' W 063°33'1 1.2
2019-Sep-17 20:59N 44°38' W 063°34'0 0.0
2019-Sep-17 20:29N 44°38' W 063°34'0 0.0
2019-Sep-17 19:58N 44°38' W 063°34'0 0.0
2019-Sep-17 19:28N 44°38' W 063°34'0 0.0
2019-Sep-17 18:58N 44°38' W 063°34'0 0.0
2019-Sep-17 18:28N 44°38' W 063°34'0 0.0
2019-Sep-17 18:00N 44°38' W 063°34'0 0.0
2019-Sep-17 17:30N 44°38' W 063°34'0 0.0
2019-Sep-17 17:00N 44°38' W 063°34'0 0.0
2019-Sep-17 16:30N 44°38' W 063°34'0 0.0
2019-Sep-17 16:00N 44°38' W 063°34'0 0.0
2019-Sep-17 15:29N 44°38' W 063°34'0 0.0
2019-Sep-17 14:59N 44°38' W 063°34'0 0.0
2019-Sep-17 14:29N 44°38' W 063°34'0 0.0
2019-Sep-17 13:59N 44°38' W 063°34'0 0.0
2019-Sep-17 13:29N 44°38' W 063°34'0 0.0
2019-Sep-17 12:58N 44°38' W 063°34'0 0.0
2019-Sep-17 12:28N 44°38' W 063°34'0 0.0
2019-Sep-17 11:59N 44°38' W 063°34'0 0.8
2019-Sep-17 11:30N 44°38' W 063°33'4 8.0
2019-Sep-17 11:00N 44°34' W 063°32'612.4
2019-Sep-17 10:30N 44°29' W 063°28'5 9.3
2019-Sep-17 10:00N 44°28' W 063°22'714.4
2019-Sep-17 09:30N 44°29' W 063°12'714.5
2019-Sep-17 09:01N 44°30' W 063°02'  
Track history (hours):
 
Tides and Currents Weather Stations Pressure Air Temp Water Temp Dewpoint Dewpoint Depression Visibility Wind Speed Wind Dir Waves Ship Positions

Norwegian Gem (Bahamas)

Last reported at 2019-Sep-21 00:37 UTC. Time now 2019-Sep-22 00:40 UTC.
Position N 42°32' W 070°33'.

Length 294 m; draft 8.6 m.

Type: Ship. MMSI: 309951000.

Date/timePositionNaut miles runAvg speedWind from/ knotsBaromVisibWave heightAir tempDewpointWater temp
2019-Sep-21 00:37N 42°32' W 070°33'315.7
2019-Sep-21 00:24N 42°31' W 070°37'615.8
2019-Sep-21 00:00N 42°27' W 070°44'714.4
2019-Sep-20 23:31N 42°23' W 070°52'710.6
2019-Sep-20 22:52N 42°21' W 071°01'1 0.1
2019-Sep-20 10:48N 42°21' W 071°02'1 2.8
2019-Sep-20 10:30N 42°21' W 071°01'510.2
2019-Sep-20 10:00N 42°22' W 070°55'612.1
2019-Sep-20 09:30N 42°25' W 070°47'612.5
2019-Sep-20 09:00N 42°29' W 070°40'612.7
2019-Sep-20 08:31N 42°32' W 070°33'7215.0
2019-Sep-20 03:40N 43°13' W 069°12'915.9
2019-Sep-20 03:07N 43°18' W 069°02'516.3
2019-Sep-20 02:50N 43°21' W 068°57'515.5
2019-Sep-20 02:30N 43°24' W 068°51'815.9
2019-Sep-20 01:59N 43°29' W 068°42'816.0
2019-Sep-20 01:29N 43°34' W 068°33'815.8
2019-Sep-20 01:00N 43°40' W 068°28'916.6
2019-Sep-20 00:29N 43°48' W 068°22'1216.2
2019-Sep-19 23:45N 43°58' W 068°14'516.7
2019-Sep-19 23:29N 44°02' W 068°10'204 4.2
2019-Sep-17 22:30N 44°22' W 063°27'919.1
2019-Sep-17 22:00N 44°31' W 063°31'714.1
2019-Sep-17 21:31N 44°38' W 063°33'1 1.2
2019-Sep-17 20:59N 44°38' W 063°34'0 0.0
2019-Sep-17 20:29N 44°38' W 063°34'0 0.0
2019-Sep-17 19:58N 44°38' W 063°34'0 0.0
2019-Sep-17 19:28N 44°38' W 063°34'0 0.0
2019-Sep-17 18:58N 44°38' W 063°34'0 0.0
2019-Sep-17 18:28N 44°38' W 063°34'0 0.0
2019-Sep-17 18:00N 44°38' W 063°34'0 0.0
2019-Sep-17 17:30N 44°38' W 063°34'0 0.0
2019-Sep-17 17:00N 44°38' W 063°34'0 0.0
2019-Sep-17 16:30N 44°38' W 063°34'0 0.0
2019-Sep-17 16:00N 44°38' W 063°34'0 0.0
2019-Sep-17 15:29N 44°38' W 063°34'0 0.0
2019-Sep-17 14:59N 44°38' W 063°34'0 0.0
2019-Sep-17 14:29N 44°38' W 063°34'0 0.0
2019-Sep-17 13:59N 44°38' W 063°34'0 0.0
2019-Sep-17 13:29N 44°38' W 063°34'0 0.0
2019-Sep-17 12:58N 44°38' W 063°34'0 0.0
2019-Sep-17 12:28N 44°38' W 063°34'0 0.0
2019-Sep-17 11:59N 44°38' W 063°34'0 0.8
2019-Sep-17 11:30N 44°38' W 063°33'4 8.0
2019-Sep-17 11:00N 44°34' W 063°32'612.4
2019-Sep-17 10:30N 44°29' W 063°28'5 9.3
2019-Sep-17 10:00N 44°28' W 063°22'714.4
2019-Sep-17 09:30N 44°29' W 063°12'714.5
2019-Sep-17 09:01N 44°30' W 063°02'  

Dump ship's entire track history